AirNav  
 
airports navaids fix Aviation Fuel airboss pilotshop
 812 users online  

1T9
(formerly 1TS9)
Lesikar Ranch Airport
Hallettsville, Texas, USA

GOING TO HALLETTSVILLE?

Reserve a HOTEL

FAA INFORMATION EFFECTIVE 08 APRIL 2010

Location

FAA Identifier: 1T9
Lat/Long: 29-31-01.0000N / 096-50-40.0000W
29-31.016667N / 096-50.666667W
29.5169444 / -96.8444444
(estimated)
Elevation: 275 ft. / 84 m (estimated)
Variation: 06E (1995)
From city: 7 miles E of HALLETTSVILLE, TX
Time zone: UTC -5 (UTC -6 during Standard Time)
Zip code: 77964

Airport Operations

Airport use: CLOSED INDEFINITELY
Activation date: 06/1997
Sectional chart: SAN ANTONIO
Control tower: no
ARTCC: HOUSTON CENTER
FSS: MONTGOMERY COUNTY FLIGHT SERVICE STATION
NOTAMs facility: CXO (NOTAM-D service available)
Attendance: UNATNDD
Wind indicator: yes
Segmented circle: no

Airport Communications

CTAF: 122.9

Nearby radio navigation aids

VOR radial/distance  VOR name  Freq  Var
ELAr244/28.9EAGLE LAKE VOR/DME116.4008E
IDUr201/30.2INDUSTRY VORTAC110.2008E
VCTr005/37.7VICTORIA VOR/DME109.0006E

 
NDB name  Hdg/Dist  Freq  Var  ID
YOAKUM045/19.735006EOKT --- -.- -
WHARTON287/39.524506EARM .- .-. --

Airport Services

Runway Information

Runway 16/34

Dimensions: 2800 x 125 ft. / 853 x 38 m
Surface: turf, in fair condition
RUNWAY 16  RUNWAY 34
Traffic pattern: leftleft
Obstructions: 20 ft. tree, 35 ft. from runway, 75 ft. left of centerline, 1:1 slope to clear25 ft. pline, marked

Airport Ownership and Management from official FAA records

Ownership: Privately-owned
Owner: WOODROW V LESIKAR
RT 5 BOX 543-D
HALLETTSVILLE, TX 77964
Phone 409-562-2249
Manager: WOODROW V LESIKAR
RT 5 BOX 543-D
HALLETTSVILE, TX 77964
Phone 409-562-2249

Airport Operational Statistics

Aircraft based on the field: 1
Single engine airplanes: 1
    

Additional Remarks

GATE TO PUBLIC ROAD LOCKED.
(ARPT STATUS) ARPT CLSD INDEFLY.

Instrument Procedures

There are no published instrument procedures at 1T9.

Some nearby airports with instrument procedures:

T85 - Yoakum Municipal Airport (20 nm SW)
3T5 - Fayette Regional Air Center Airport (24 nm N)
KELA - Eagle Lake Airport (28 nm E)
KARM - Wharton Regional Airport (39 nm SE)
KGYB - Giddings-Lee County Airport (40 nm N)
 
Loc | Ops | Rwys | IFR | FBO | Links
Com | Nav | Svcs | Stats | Notes

ATP Flight Schools promo
 
Area around 1T9 (Lesikar Ranch Airport)
 
Road maps at: MapQuest MapPoint Yahoo! Maps Google Rand McNally
Satellite photo at: TerraServer Virtual Earth

 
Aerial photo
WARNING: Photo may not be current or correct
Aerial photo of 1T9 (Lesikar Ranch Airport)
Do you have a better or more recent aerial photo of Lesikar Ranch Airport that you would like to share? If so, please send us your photo.

 
Sectional chart

 
Airport distance calculator
Flying to Lesikar Ranch Airport? Find the distance to fly.

From to 1T9

Sunrise and sunset
Times for 13-Apr-2010
 Local
(UTC-5)
 Zulu
(UTC)
Morning civil twilight06:4011:40
Sunrise07:0412:04
Sunset19:5200:52
Evening civil twilight20:1601:16

Current date and time
Zulu (UTC)  14-Apr-2010 03:55:33
Local (UTC-5)  13-Apr-2010 22:55:33
 
METAR
K3T5 
24nm N 
140324Z AUTO 12005KT 10SM CLR 19/16 A3011 RMK AO2 T01920155
KVCT 
39nm S 
140320Z AUTO 09011KT 10SM OVC016 20/17 A3010 RMK AO2
KARM 
39nm SE 
140325Z AUTO 09005KT 10SM SCT022 20/17 A3013 RMK AO2 T01980170
KGYB 
40nm N 
140325Z AUTO 12004KT 10SM CLR 18/14 A3016 RMK AO2 T01820137
TAF
KVCT 
39nm S 
132339Z 1400/1424 11015G20KT P6SM FEW025 BKN050 FM140300 11008KT P6SM SCT015 BKN025 FM140600 07007KT 6SM BR BKN012 OVC022 FM141400 10013G20KT P6SM VCSH SCT007 BKN015 OVC025 PROB30 1415/1418 5SM SHRA BKN007 FM141800 11014KT P6SM VCSH SCT015 BKN025 OVC
NOTAMs
Click for the latest NOTAMs
NOTAMs are issued by the DoD/FAA and will open in a separate window not controlled by AirNav.

 

 
 

Where to Stay: Hotels, Motels, Resorts, B&Bs, Campgrounds

 In this space we feature lodging establishments that are convenient to the Lesikar Ranch Airport. If your hotel/inn/B&B/resort is near the Lesikar Ranch Airport, provides convenient transportation, or is otherwise attractive to pilots, flight crews, and airport users, consider listing it here.  
Feature A Hotel
 

Hotels in other cities near Lesikar Ranch Airport

1 in Schulenburg
 

Would you like to see your business listed on this page?

 If your business provides an interesting product or service to pilots, flight crews, aircraft, or users of the Lesikar Ranch Airport, you should consider listing it here.  To start the listing process, click on the button below
 
Add a business
 

Other Pages about Lesikar Ranch Airport

Update a link
 
Copyright © AirNav, LLC. All rights reserved. Privacy Policy  Contact